Time;durP1;ratioP1;P1;durP2;ratioP2;P2;SDS_P1;SDS_P2;PMS_P1;PMS_P2;Temp;Humidity;BMP_temperature;BMP_pressure;BME280_temperature;BME280_humidity;BME280_pressure;Samples;Min_cycle;Max_cycle;Signal;HPM_P1;HPM_P2
2022/05/22 00:01:59;;;;;;;6.65;3.45;;;9.80;99.90;;;;;;5116691;28;20050;-67
2022/05/22 00:04:26;;;;;;;9.23;3.95;;;9.70;99.90;;;;;;5117237;28;20044;-67
2022/05/22 00:06:52;;;;;;;6.45;3.33;;;;;;;;;;5116109;28;20046;-67
2022/05/22 00:09:18;;;;;;;6.95;3.53;;;9.60;99.90;;;;;;5117483;28;20073;-67
2022/05/22 00:11:44;;;;;;;7.35;3.53;;;9.70;99.90;;;;;;5117338;28;20043;-67
2022/05/22 00:14:13;;;;;;;8.95;3.33;;;9.50;99.90;;;;;;5117222;28;20039;-67
2022/05/22 00:16:46;;;;;;;10.55;4.40;;;9.70;99.90;;;;;;5116714;28;20118;-67
2022/05/22 00:19:18;;;;;;;8.25;4.28;;;9.70;99.90;;;;;;5118016;28;20046;-67
2022/05/22 00:21:44;;;;;;;9.57;3.97;;;9.80;99.90;;;;;;5099316;28;20051;-67
2022/05/22 00:24:11;;;;;;;12.90;5.07;;;9.70;99.90;;;;;;5116515;28;20122;-67
2022/05/22 00:26:38;;;;;;;6.30;3.90;;;9.70;99.90;;;;;;5115604;28;20048;-67
2022/05/22 00:29:04;;;;;;;7.20;4.03;;;9.60;99.90;;;;;;5116683;28;20039;-66
2022/05/22 00:31:30;;;;;;;14.30;4.20;;;9.60;99.90;;;;;;5115052;28;20110;-67
2022/05/22 00:33:56;;;;;;;7.68;3.95;;;;;;;;;;5117705;28;20074;-67
2022/05/22 00:36:22;;;;;;;11.05;4.43;;;9.60;99.90;;;;;;5118702;28;20133;-67
2022/05/22 00:38:48;;;;;;;8.18;5.03;;;;;;;;;;5099301;28;20397;-67
2022/05/22 00:41:14;;;;;;;10.30;5.15;;;9.40;99.90;;;;;;5116216;28;20485;-67
2022/05/22 00:43:41;;;;;;;8.13;4.18;;;9.50;99.90;;;;;;5116692;28;20044;-67
2022/05/22 00:46:11;;;;;;;4.13;2.10;;;9.40;99.90;;;;;;5118321;28;20059;-67
2022/05/22 00:48:37;;;;;;;7.95;3.35;;;9.30;99.90;;;;;;5114750;28;20507;-65
2022/05/22 00:51:09;;;;;;;6.63;4.03;;;9.10;99.90;;;;;;5116881;28;20046;-66
2022/05/22 00:53:40;;;;;;;6.28;4.07;;;9.00;99.90;;;;;;5115219;28;20456;-66
2022/05/22 00:56:07;;;;;;;9.68;3.75;;;;;;;;;;5116733;28;20539;-66
2022/05/22 00:58:34;;;;;;;10.35;3.78;;;9.10;99.90;;;;;;5098799;28;20088;-66
2022/05/22 01:01:00;;;;;;;8.95;4.60;;;9.10;99.90;;;;;;5115131;28;20082;-65
2022/05/22 01:03:27;;;;;;;7.13;4.63;;;9.20;99.90;;;;;;5116666;28;20039;-65
2022/05/22 01:06:04;;;;;;;7.03;3.88;;;9.20;99.90;;;;;;5116120;28;20039;-65
2022/05/22 01:08:31;;;;;;;7.68;4.25;;;;;;;;;;5116060;28;20119;-65
2022/05/22 01:11:26;;;;;;;9.02;4.10;;;;;;;;;;5114206;28;20043;-66
2022/05/22 01:14:02;;;;;;;8.48;4.00;;;9.20;99.90;;;;;;5101384;28;20043;-65
2022/05/22 01:16:28;;;;;;;10.70;4.95;;;;;;;;;;5114369;28;20484;-66
2022/05/22 01:18:56;;;;;;;7.90;3.58;;;9.10;99.90;;;;;;5117720;28;20046;-66
2022/05/22 01:21:28;;;;;;;8.27;4.22;;;9.10;99.90;;;;;;5115105;28;20046;-66
2022/05/22 01:23:54;;;;;;;5.50;3.30;;;9.00;99.90;;;;;;5114452;28;20035;-65
2022/05/22 01:26:22;;;;;;;6.57;3.55;;;8.80;99.90;;;;;;5114416;28;20397;-65
2022/05/22 01:28:47;;;;;;;5.53;3.10;;;8.70;99.90;;;;;;5115945;28;20050;-65
2022/05/22 01:31:13;;;;;;;4.97;3.10;;;8.70;99.90;;;;;;5115107;28;20035;-66
2022/05/22 01:33:40;;;;;;;7.15;2.75;;;8.70;99.90;;;;;;5099065;28;20497;-66
2022/05/22 01:36:07;;;;;;;6.05;3.17;;;8.50;99.90;;;;;;5115888;28;20040;-65
2022/05/22 01:38:33;;;;;;;7.30;2.53;;;8.70;99.90;;;;;;5116455;28;20392;-65
2022/05/22 01:40:59;;;;;;;4.25;3.28;;;8.70;99.90;;;;;;5098802;28;20042;-65
2022/05/22 01:43:25;;;;;;;4.25;3.33;;;;;;;;;;5116551;28;20122;-65
2022/05/22 01:45:51;;;;;;;6.18;2.97;;;8.70;99.90;;;;;;5117141;28;20047;-66
2022/05/22 01:48:17;;;;;;;6.03;2.45;;;8.70;99.90;;;;;;5114071;28;20374;-65
2022/05/22 01:50:44;;;;;;;5.15;3.22;;;8.60;99.90;;;;;;5116103;28;20040;-66
2022/05/22 01:53:10;;;;;;;8.07;3.30;;;8.40;99.90;;;;;;5115648;28;20065;-66
2022/05/22 01:55:36;;;;;;;6.45;3.85;;;8.50;99.90;;;;;;5115665;28;20048;-66
2022/05/22 01:58:06;;;;;;;5.20;3.13;;;8.70;99.90;;;;;;5114471;28;20118;-66
2022/05/22 02:00:33;;;;;;;7.97;3.10;;;8.40;99.90;;;;;;5115646;28;20036;-66
2022/05/22 02:02:58;;;;;;;4.10;2.67;;;8.20;99.90;;;;;;5114709;28;20031;-66
2022/05/22 02:05:24;;;;;;;2.67;2.33;;;8.20;99.90;;;;;;5114560;28;20485;-66
2022/05/22 02:10:36;;;;;;;3.92;2.90;;;;;;;;;;5115333;28;20489;-66
2022/05/22 02:13:01;;;;;;;6.13;3.67;;;8.20;99.90;;;;;;5115336;28;20036;-66
2022/05/22 02:15:28;;;;;;;5.53;3.92;;;;;;;;;;5113706;28;20043;-66
2022/05/22 02:17:54;;;;;;;8.23;3.30;;;8.30;99.90;;;;;;5114845;28;20050;-66
2022/05/22 02:20:20;;;;;;;4.40;3.10;;;8.20;99.90;;;;;;5114077;28;20040;-66
2022/05/22 02:22:52;;;;;;;5.30;2.75;;;7.80;99.90;;;;;;5114293;28;20040;-66
2022/05/22 02:25:24;;;;;;;3.78;2.47;;;7.70;99.90;;;;;;5114620;28;20044;-66
2022/05/22 02:27:50;;;;;;;2.50;2.28;;;8.00;99.90;;;;;;5115274;28;20032;-66
2022/05/22 02:30:18;;;;;;;5.53;2.60;;;8.20;99.90;;;;;;5097790;28;20405;-66
2022/05/22 02:32:44;;;;;;;3.08;2.78;;;8.10;99.90;;;;;;5115392;28;20043;-66
2022/05/22 02:35:12;;;;;;;2.42;2.22;;;7.90;99.90;;;;;;5115609;28;20036;-66
2022/05/22 02:37:45;;;;;;;3.17;2.03;;;7.90;99.90;;;;;;5114858;28;20043;-66
2022/05/22 02:40:12;;;;;;;2.97;2.08;;;8.00;99.90;;;;;;5118486;28;20036;-66
2022/05/22 02:42:40;;;;;;;2.67;2.20;;;7.90;99.90;;;;;;5118415;28;20046;-66
2022/05/22 02:45:06;;;;;;;3.13;2.38;;;7.70;99.90;;;;;;5119365;27;20075;-66
2022/05/22 02:47:33;;;;;;;2.42;2.10;;;7.80;99.90;;;;;;5118111;28;20035;-66
2022/05/22 02:49:58;;;;;;;2.58;2.30;;;7.80;99.90;;;;;;5119020;28;20431;-66
2022/05/22 02:52:24;;;;;;;2.70;2.50;;;;;;;;;;5117381;28;20093;-66
2022/05/22 02:54:50;;;;;;;2.78;2.35;;;7.80;99.90;;;;;;5117791;28;20070;-66
2022/05/22 02:57:21;;;;;;;2.58;2.38;;;7.70;99.90;;;;;;5119382;28;20047;-66
2022/05/22 02:59:47;;;;;;;4.18;2.35;;;7.90;99.90;;;;;;5110051;28;20048;-66
2022/05/22 03:02:13;;;;;;;2.92;2.65;;;;;;;;;;5100182;28;20040;-66
2022/05/22 03:04:39;;;;;;;3.25;2.53;;;7.80;99.90;;;;;;5080958;28;20032;-66
2022/05/22 03:07:05;;;;;;;7.03;2.90;;;7.60;99.90;;;;;;5096946;28;20511;-67
2022/05/22 03:09:31;;;;;;;3.30;2.45;;;;;;;;;;5098728;28;20511;-66
2022/05/22 03:11:57;;;;;;;4.38;2.65;;;7.80;99.90;;;;;;5099264;28;20040;-66
2022/05/22 03:14:23;;;;;;;10.93;2.95;;;7.70;99.90;;;;;;5099436;28;20040;-66
2022/05/22 03:16:49;;;;;;;3.78;3.10;;;7.80;99.90;;;;;;5098094;28;20055;-66
2022/05/22 03:19:15;;;;;;;4.85;2.35;;;7.90;99.90;;;;;;5099484;28;20136;-66
2022/05/22 03:21:42;;;;;;;3.38;2.75;;;7.60;99.90;;;;;;5098284;28;20078;-66
2022/05/22 03:24:08;;;;;;;5.15;3.10;;;7.70;99.90;;;;;;5097332;28;20089;-66
2022/05/22 03:26:34;;;;;;;3.90;3.47;;;7.80;99.90;;;;;;5096491;28;20520;-66
2022/05/22 03:29:00;;;;;;;5.13;3.72;;;7.80;99.90;;;;;;5096368;28;20040;-66
2022/05/22 03:31:25;;;;;;;10.25;5.20;;;;;;;;;;5096717;28;20039;-66
2022/05/22 03:33:51;;;;;;;8.07;4.80;;;;;;;;;;5096453;28;20043;-66
2022/05/22 03:36:17;;;;;;;6.85;4.75;;;7.80;99.90;;;;;;5097783;28;20136;-66
2022/05/22 03:38:43;;;;;;;7.72;4.22;;;;;;;;;;5096089;28;20040;-66
2022/05/22 03:41:09;;;;;;;8.07;3.97;;;7.80;99.90;;;;;;5097422;28;20119;-66
2022/05/22 03:43:35;;;;;;;8.98;4.95;;;;;;;;;;5097680;28;20158;-66
2022/05/22 03:46:00;;;;;;;6.95;4.75;;;7.70;99.90;;;;;;5105891;28;20048;-66
2022/05/22 03:48:26;;;;;;;7.30;4.07;;;7.90;99.90;;;;;;5118707;28;20035;-66
2022/05/22 03:50:52;;;;;;;6.38;4.40;;;;;;;;;;5118417;28;20485;-66
2022/05/22 03:53:18;;;;;;;8.63;4.78;;;;;;;;;;5117083;28;20448;-66
2022/05/22 03:55:44;;;;;;;6.85;4.70;;;;;;;;;;5115913;28;20138;-67
2022/05/22 03:58:10;;;;;;;10.02;4.80;;;;;;;;;;5116397;28;20044;-66
2022/05/22 04:00:36;;;;;;;7.10;5.10;;;8.10;99.90;;;;;;5117784;28;20043;-66
2022/05/22 04:03:01;;;;;;;8.88;4.85;;;7.80;99.90;;;;;;5116428;28;20065;-66
2022/05/22 04:05:27;;;;;;;11.02;5.28;;;7.90;99.90;;;;;;5117155;28;20047;-66
2022/05/22 04:07:53;;;;;;;10.50;5.55;;;8.10;99.90;;;;;;5117597;28;20397;-66
2022/05/22 04:10:19;;;;;;;8.85;5.55;;;8.10;99.90;;;;;;5117521;28;20122;-66
2022/05/22 04:12:45;;;;;;;17.52;6.15;;;8.00;99.90;;;;;;5100019;28;20035;-66
2022/05/22 04:15:15;;;;;;;9.48;5.15;;;8.10;99.90;;;;;;5117248;28;20040;-66
2022/05/22 04:17:41;;;;;;;12.43;5.78;;;;;;;;;;5101115;28;20050;-66
2022/05/22 04:20:07;;;;;;;13.75;6.45;;;8.30;99.90;;;;;;5100774;28;20402;-66
2022/05/22 04:22:33;;;;;;;9.77;6.20;;;;;;;;;;5096833;28;20198;-66
2022/05/22 04:25:11;;;;;;;11.23;5.25;;;8.30;99.90;;;;;;5096681;28;20040;-66
2022/05/22 04:27:41;;;;;;;8.38;5.30;;;;;;;;;;5097580;28;20501;-66
2022/05/22 04:30:09;;;;;;;8.35;5.78;;;8.20;99.90;;;;;;5111804;28;20554;-66
2022/05/22 04:32:34;;;;;;;7.70;5.55;;;8.30;99.90;;;;;;5108602;28;20028;-65
2022/05/22 04:35:00;;;;;;;11.57;5.55;;;8.30;99.90;;;;;;5092042;28;20402;-65
2022/05/22 04:37:25;;;;;;;8.90;5.28;;;8.40;99.90;;;;;;5093890;28;20108;-65
2022/05/22 04:39:51;;;;;;;11.00;7.32;;;8.70;99.90;;;;;;5090322;28;20539;-65
2022/05/22 04:42:16;;;;;;;10.95;7.25;;;8.90;99.90;;;;;;5093745;28;20078;-65
2022/05/22 04:44:43;;;;;;;13.30;7.53;;;8.90;99.90;;;;;;5098297;28;20032;-65
2022/05/22 04:47:08;;;;;;;10.88;6.65;;;9.20;99.90;;;;;;5111456;28;20126;-66
2022/05/22 04:49:34;;;;;;;7.80;6.10;;;8.90;99.90;;;;;;5112409;28;20232;-66
2022/05/22 04:52:00;;;;;;;10.07;6.00;;;;;;;;;;5113470;28;20040;-66
2022/05/22 04:54:26;;;;;;;11.00;6.40;;;9.10;99.90;;;;;;5112437;28;20047;-67
2022/05/22 04:56:53;;;;;;;13.95;7.10;;;9.30;99.90;;;;;;5092750;28;20115;-65
2022/05/22 04:59:19;;;;;;;13.25;8.00;;;;;;;;;;5098735;28;20040;-66
2022/05/22 05:01:45;;;;;;;12.65;6.93;;;;;;;;;;5085348;28;20370;-67
2022/05/22 05:04:13;;;;;;;16.52;7.82;;;10.10;99.90;;;;;;5086657;28;20051;-66
2022/05/22 05:06:39;;;;;;;7.88;6.72;;;10.60;99.90;;;;;;5087292;28;20071;-66
2022/05/22 05:09:04;;;;;;;12.40;6.45;;;10.90;99.90;;;;;;5088021;28;20044;-67
2022/05/22 05:11:30;;;;;;;11.75;5.55;;;11.60;99.90;;;;;;5089225;28;20127;-66
2022/05/22 05:13:56;;;;;;;11.40;5.97;;;;;;;;;;5089249;28;20710;-67
2022/05/22 05:16:22;;;;;;;9.13;5.90;;;;;;;;;;5088964;28;20036;-67
2022/05/22 05:18:47;;;;;;;10.48;5.63;;;12.90;99.90;;;;;;5088956;28;20040;-66
2022/05/22 05:21:16;;;;;;;9.38;4.57;;;13.30;99.90;;;;;;5088664;28;20046;-67
2022/05/22 05:23:42;;;;;;;11.55;5.43;;;14.00;99.90;;;;;;5087395;28;20071;-65
2022/05/22 05:26:08;;;;;;;8.95;4.90;;;14.60;99.90;;;;;;5088987;28;20040;-66
2022/05/22 05:28:34;;;;;;;9.23;5.20;;;14.80;99.90;;;;;;5088717;28;20131;-67
2022/05/22 05:30:59;;;;;;;14.90;4.93;;;15.10;99.90;;;;;;5086118;28;20520;-67
2022/05/22 05:33:25;;;;;;;12.60;5.05;;;15.10;99.90;;;;;;5098799;28;20051;-66
2022/05/22 05:35:51;;;;;;;11.35;4.47;;;16.80;99.90;;;;;;5094636;27;20457;-66
2022/05/22 05:38:17;;;;;;;9.20;4.25;;;15.90;99.90;;;;;;5103301;27;20493;-66
2022/05/22 05:40:43;;;;;;;11.70;4.75;;;16.10;99.90;;;;;;5091907;27;20131;-66
2022/05/22 05:43:09;;;;;;;12.38;4.70;;;16.20;99.90;;;;;;5124200;27;20574;-66
2022/05/22 05:45:35;;;;;;;12.48;5.20;;;16.20;99.90;;;;;;5115759;27;20123;-66
2022/05/22 05:48:01;;;;;;;9.15;4.20;;;15.70;99.90;;;;;;5122926;27;20118;-66
2022/05/22 05:50:27;;;;;;;10.02;5.25;;;16.10;99.90;;;;;;5104771;28;20507;-66
2022/05/22 05:52:56;;;;;;;7.72;4.25;;;15.70;99.90;;;;;;5122942;27;20042;-66
2022/05/22 05:55:22;;;;;;;10.00;5.07;;;15.90;99.90;;;;;;5122584;27;20044;-66
2022/05/22 05:57:48;;;;;;;11.73;4.65;;;15.90;99.90;;;;;;5122623;27;20448;-67
2022/05/22 06:00:16;;;;;;;10.60;3.58;;;15.80;99.90;;;;;;5123764;28;20031;-66
2022/05/22 06:02:42;;;;;;;11.00;4.57;;;15.40;99.90;;;;;;5114446;28;20043;-66
2022/05/22 06:05:09;;;;;;;12.48;4.50;;;15.10;99.90;;;;;;5121455;28;20049;-67
2022/05/22 06:07:35;;;;;;;11.20;5.07;;;15.30;99.90;;;;;;5121224;28;20559;-67
2022/05/22 06:10:01;;;;;;;8.77;4.60;;;15.10;99.90;;;;;;5121456;28;20408;-66
2022/05/22 06:12:27;;;;;;;16.70;8.05;;;15.10;99.90;;;;;;5128465;27;20100;-66
2022/05/22 06:14:53;;;;;;;10.20;4.50;;;15.30;99.90;;;;;;5131330;27;20039;-67
2022/05/22 06:17:18;;;;;;;10.73;4.28;;;15.30;99.90;;;;;;5132202;27;20043;-66
2022/05/22 06:19:59;;;;;;;13.32;4.78;;;15.60;99.90;;;;;;5132445;27;20479;-67
2022/05/22 06:22:28;;;;;;;10.18;3.92;;;15.60;99.90;;;;;;5123716;27;20538;-67
2022/05/22 06:24:54;;;;;;;14.57;4.30;;;15.90;99.90;;;;;;5110802;28;20047;-65
2022/05/22 06:27:21;;;;;;;8.05;3.88;;;16.10;99.90;;;;;;5116162;27;20039;-66
2022/05/22 06:29:47;;;;;;;11.90;3.70;;;16.10;99.90;;;;;;5127154;27;20051;-67
2022/05/22 06:32:16;;;;;;;11.50;3.80;;;16.10;99.90;;;;;;5123836;27;20035;-67
2022/05/22 06:34:42;;;;;;;11.43;3.60;;;16.30;99.90;;;;;;5106583;28;20059;-66
2022/05/22 06:37:19;;;;;;;6.80;3.20;;;16.30;99.90;;;;;;5104399;28;20122;-67
2022/05/22 06:39:50;;;;;;;10.88;4.57;;;16.30;99.90;;;;;;5099542;28;20062;-67
2022/05/22 06:42:23;;;;;;;9.90;3.92;;;16.40;99.90;;;;;;5082024;28;20040;-66
2022/05/22 06:44:54;;;;;;;8.70;3.03;;;15.80;99.90;;;;;;5083219;28;20036;-66
2022/05/22 06:47:21;;;;;;;9.95;3.35;;;16.00;99.90;;;;;;5085746;28;20067;-65
2022/05/22 06:49:47;;;;;;;6.57;3.78;;;15.60;99.90;;;;;;5084833;27;20051;-67
2022/05/22 06:52:13;;;;;;;11.13;3.58;;;15.40;99.90;;;;;;5083353;28;20365;-67
2022/05/22 06:54:38;;;;;;;12.82;4.95;;;15.40;99.90;;;;;;5113795;27;20500;-67
2022/05/22 06:57:04;;;;;;;12.50;3.65;;;;;;;;;;5125940;27;20055;-67
2022/05/22 06:59:30;;;;;;;8.30;3.70;;;15.10;99.90;;;;;;5107540;27;20119;-65
2022/05/22 07:01:59;;;;;;;11.18;3.10;;;15.10;99.90;;;;;;5088684;28;20115;-65
2022/05/22 07:04:25;;;;;;;10.60;2.83;;;;;;;;;;5094705;27;20123;-67
2022/05/22 07:06:50;;;;;;;12.40;3.03;;;15.00;99.90;;;;;;5087196;28;20123;-66
2022/05/22 07:09:16;;;;;;;12.57;3.00;;;15.00;99.90;;;;;;5086316;27;20405;-66
2022/05/22 07:11:42;;;;;;;12.52;3.33;;;;;;;;;;5089145;28;20313;-66
2022/05/22 07:14:10;;;;;;;12.70;3.80;;;15.10;99.90;;;;;;5092566;27;20063;-66
2022/05/22 07:16:37;;;;;;;12.10;3.40;;;15.10;99.90;;;;;;5088464;28;20040;-67
2022/05/22 07:19:04;;;;;;;13.13;4.22;;;15.20;99.90;;;;;;5094663;27;20126;-66
2022/05/22 07:21:30;;;;;;;14.23;3.63;;;15.20;99.90;;;;;;5088361;28;20044;-66
2022/05/22 07:23:55;;;;;;;12.13;3.90;;;15.20;99.90;;;;;;5085841;28;20101;-66
2022/05/22 07:26:24;;;;;;;9.15;3.25;;;;;;;;;;5087709;28;20044;-68
2022/05/22 07:28:50;;;;;;;11.30;2.90;;;;;;;;;;5105514;28;20051;-65
2022/05/22 07:31:18;;;;;;;9.05;2.97;;;15.30;99.90;;;;;;5094105;27;20048;-66
2022/05/22 07:33:44;;;;;;;11.98;2.35;;;15.30;99.90;;;;;;5090338;28;20043;-66
2022/05/22 07:36:10;;;;;;;11.38;2.78;;;15.40;99.90;;;;;;5103499;27;20039;-67
2022/05/22 07:38:36;;;;;;;18.23;5.05;;;15.40;99.90;;;;;;5092357;28;20465;-66
2022/05/22 07:41:01;;;;;;;12.43;2.67;;;15.40;99.90;;;;;;5090777;28;20036;-65
2022/05/22 07:43:27;;;;;;;11.15;3.08;;;;;;;;;;5089906;28;20036;-68
2022/05/22 07:45:54;;;;;;;14.02;3.72;;;15.50;99.90;;;;;;5094468;27;20078;-66
2022/05/22 07:48:20;;;;;;;10.45;3.40;;;15.50;99.90;;;;;;5091134;28;20497;-66
2022/05/22 07:50:45;;;;;;;9.95;2.67;;;15.50;99.90;;;;;;5092677;28;20108;-66
2022/05/22 07:53:11;;;;;;;14.93;3.17;;;15.60;99.90;;;;;;5091264;28;20531;-67
2022/05/22 07:55:39;;;;;;;10.18;3.20;;;15.60;99.90;;;;;;5090859;27;20135;-66
2022/05/22 07:58:04;;;;;;;7.10;3.38;;;15.60;99.90;;;;;;5092933;28;20390;-65
2022/05/22 08:00:30;;;;;;;10.32;2.60;;;15.70;99.90;;;;;;5087683;28;20089;-66
2022/05/22 08:02:56;;;;;;;9.82;2.83;;;15.70;99.90;;;;;;5093004;27;20375;-65
2022/05/22 08:05:22;;;;;;;9.55;2.72;;;15.80;99.90;;;;;;5091318;28;20077;-66
2022/05/22 08:07:47;;;;;;;16.15;2.50;;;16.00;99.90;;;;;;5091795;27;20085;-66
2022/05/22 08:10:15;;;;;;;9.32;2.40;;;15.90;99.90;;;;;;5091232;28;20039;-66
2022/05/22 08:12:47;;;;;;;8.75;2.50;;;15.90;99.90;;;;;;5092351;27;20032;-66
2022/05/22 08:15:16;;;;;;;10.68;3.08;;;15.90;99.90;;;;;;5110816;28;20058;-66
2022/05/22 08:17:42;;;;;;;9.25;2.60;;;16.00;99.90;;;;;;5084537;28;20048;-66
2022/05/22 08:20:14;;;;;;;8.93;2.38;;;16.10;99.90;;;;;;5090112;28;20032;-67
2022/05/22 08:22:40;;;;;;;7.90;2.33;;;16.00;99.90;;;;;;5090251;27;20043;-65
2022/05/22 08:25:07;;;;;;;7.47;3.83;;;16.00;99.90;;;;;;5091443;28;20571;-66
2022/05/22 08:27:34;;;;;;;8.88;2.95;;;;;;;;;;5094914;28;20551;-66
2022/05/22 08:30:00;;;;;;;11.27;3.20;;;;;;;;;;5089159;28;20487;-67
2022/05/22 08:32:26;;;;;;;10.35;2.78;;;16.30;99.90;;;;;;5090675;28;20046;-67
2022/05/22 08:34:52;;;;;;;9.90;3.50;;;16.30;99.90;;;;;;5089591;28;20048;-66
2022/05/22 08:37:19;;;;;;;11.68;3.50;;;16.70;99.90;;;;;;5092051;27;20044;-67
2022/05/22 08:39:44;;;;;;;10.90;3.17;;;16.50;99.90;;;;;;5103169;28;20047;-67
2022/05/22 08:42:19;;;;;;;11.45;3.35;;;16.60;99.90;;;;;;5089929;28;20086;-67
2022/05/22 08:44:51;;;;;;;12.02;3.53;;;16.70;99.90;;;;;;5102236;28;20051;-67
2022/05/22 08:47:31;;;;;;;10.40;3.60;;;16.80;99.90;;;;;;5091681;28;20044;-67
2022/05/22 08:50:17;;;;;;;7.03;2.63;;;16.70;99.90;;;;;;5106326;28;20097;-67
2022/05/22 08:53:08;;;;;;;8.10;2.97;;;16.80;99.90;;;;;;5095927;28;20139;-68
2022/05/22 08:58:58;;;;;;;10.48;2.78;;;16.90;99.90;;;;;;5094051;27;20048;-66
2022/05/22 09:01:30;;;;;;;9.02;2.75;;;17.00;99.90;;;;;;5087145;28;20040;-66
2022/05/22 09:04:05;;;;;;;9.85;3.10;;;17.20;99.90;;;;;;5080877;28;20139;-67
2022/05/22 09:06:41;;;;;;;7.75;2.90;;;17.30;99.90;;;;;;5087853;28;20519;-68
2022/05/22 09:09:07;;;;;;;7.50;2.20;;;17.20;99.90;;;;;;5088944;27;20062;-65
2022/05/22 09:12:00;;;;;;;12.57;2.35;;;17.30;99.90;;;;;;5083594;28;20039;-67
2022/05/22 09:14:43;;;;;;;10.07;4.20;;;17.00;99.90;;;;;;5083875;28;20626;-66
2022/05/22 09:17:17;;;;;;;11.70;2.20;;;17.30;99.90;;;;;;5083556;28;20036;-67
2022/05/22 09:19:47;;;;;;;8.02;2.55;;;17.40;99.90;;;;;;5101483;27;20386;-67
2022/05/22 09:22:15;;;;;;;7.20;2.33;;;17.40;99.90;;;;;;5086295;28;20074;-67
2022/05/22 09:25:10;;;;;;;7.10;2.35;;;17.40;99.90;;;;;;5084748;27;20040;-67
2022/05/22 09:27:55;;;;;;;9.52;2.47;;;17.70;99.90;;;;;;5085053;28;20497;-66
2022/05/22 09:30:47;;;;;;;8.40;1.98;;;17.30;99.90;;;;;;5091041;28;20072;-69
2022/05/22 09:33:32;;;;;;;9.50;2.15;;;17.50;99.90;;;;;;5082656;28;20442;-66
2022/05/22 09:36:13;;;;;;;;;;;17.40;99.90;;;;;;5085222;28;20043;-68
2022/05/22 09:39:00;;;;;;;5.95;1.58;;;17.80;99.90;;;;;;5086168;28;19927;-67
2022/05/22 09:41:34;;;;;;;8.98;1.95;;;17.90;99.90;;;;;;5091996;28;20367;-68
2022/05/22 09:44:31;;;;;;;5.90;1.50;;;18.20;99.90;;;;;;5100369;28;20032;-67
2022/05/22 09:47:02;;;;;;;8.27;2.10;;;18.00;99.90;;;;;;5086982;28;20180;-68
2022/05/22 09:49:45;;;;;;;6.25;1.90;;;18.30;99.90;;;;;;5085640;28;20698;-66
2022/05/22 09:52:40;;;;;;;8.60;2.17;;;18.50;99.90;;;;;;5089074;28;20035;-66
2022/05/22 09:55:27;;;;;;;7.10;1.90;;;18.60;99.90;;;;;;5082786;27;20096;-65
2022/05/22 09:58:12;;;;;;;7.57;2.03;;;18.20;99.90;;;;;;5086777;28;20486;-66
2022/05/22 10:00:49;;;;;;;12.48;1.75;;;18.50;99.90;;;;;;5107311;28;20544;-67
2022/05/22 10:03:54;;;;;;;8.57;1.85;;;18.50;99.90;;;;;;5089782;28;20115;-67
2022/05/22 10:06:33;;;;;;;9.10;2.17;;;18.30;99.90;;;;;;5067637;28;20560;-67
2022/05/22 10:09:19;;;;;;;10.90;1.98;;;18.40;99.90;;;;;;5095895;28;20074;-66
2022/05/22 10:12:12;;;;;;;5.05;1.45;;;18.50;99.90;;;;;;5105343;28;20051;-67
2022/05/22 10:14:44;;;;;;;8.52;2.05;;;18.80;99.90;;;;;;5110802;27;20085;-68
2022/05/22 10:17:29;;;;;;;7.63;1.70;;;18.70;99.90;;;;;;5102880;28;20126;-65
2022/05/22 10:20:13;;;;;;;;;;;18.80;99.90;;;;;;5104125;28;20043;-66
2022/05/22 10:22:49;;;;;;;11.70;1.58;;;18.70;99.90;;;;;;5098378;28;19920;-66
2022/05/22 10:25:29;;;;;;;5.93;1.30;;;18.60;99.90;;;;;;5096549;28;20044;-65
2022/05/22 10:28:21;;;;;;;6.10;1.80;;;18.60;99.90;;;;;;5082192;28;20044;-67
2022/05/22 10:31:06;;;;;;;5.90;1.20;;;18.90;99.90;;;;;;5070314;28;20475;-66
2022/05/22 10:33:52;;;;;;;6.18;1.58;;;18.70;99.90;;;;;;5093970;28;20050;-65
2022/05/22 10:36:22;;;;;;;8.50;1.92;;;18.60;99.90;;;;;;5107522;28;20048;-65
2022/05/22 10:38:58;;;;;;;8.45;1.63;;;19.00;99.90;;;;;;5104381;28;20032;-66
2022/05/22 10:44:20;;;;;;;6.13;1.77;;;19.20;99.90;;;;;;5088245;28;20047;-67
2022/05/22 10:46:51;;;;;;;6.95;1.73;;;18.90;99.90;;;;;;5082627;28;20629;-65
2022/05/22 10:49:18;;;;;;;5.00;1.42;;;18.90;99.90;;;;;;5085896;28;20097;-65
2022/05/22 10:52:02;;;;;;;6.95;1.23;;;18.90;99.90;;;;;;5078493;28;20767;-66
2022/05/22 10:54:31;;;;;;;7.10;1.60;;;18.70;99.90;;;;;;5083306;28;20047;-66
2022/05/22 10:57:10;;;;;;;8.43;1.27;;;18.50;99.90;;;;;;5075562;28;20623;-68
2022/05/22 10:59:36;;;;;;;5.55;1.30;;;18.20;99.90;;;;;;5085819;27;20126;-67
2022/05/22 11:02:04;;;;;;;5.07;1.40;;;18.30;99.90;;;;;;5079941;28;20028;-65
2022/05/22 11:04:41;;;;;;;6.22;1.60;;;18.20;99.90;;;;;;5080334;27;20040;-66
2022/05/22 11:07:07;;;;;;;7.45;1.45;;;18.40;99.90;;;;;;5081402;28;20035;-67
2022/05/22 11:09:46;;;;;;;6.35;1.40;;;18.30;99.90;;;;;;5077099;28;20048;-70
2022/05/22 11:12:17;;;;;;;7.63;1.75;;;18.30;99.90;;;;;;5077054;28;20039;-69
2022/05/22 11:14:43;;;;;;;8.20;1.42;;;18.30;99.90;;;;;;5079227;27;20040;-70
2022/05/22 11:17:14;;;;;;;7.13;1.60;;;18.30;99.90;;;;;;5076915;28;20051;-65
2022/05/22 11:19:42;;;;;;;5.03;1.35;;;18.00;99.90;;;;;;5086468;27;20089;-68
2022/05/22 11:22:27;;;;;;;8.45;1.55;;;18.00;99.90;;;;;;5082887;28;20258;-66
2022/05/22 11:24:53;;;;;;;;;;;18.00;99.90;;;;;;5082956;27;20490;-65
2022/05/22 11:27:18;;;;;;;6.13;1.20;;;18.10;99.90;;;;;;5081276;28;19935;-66
2022/05/22 11:30:19;;;;;;;6.35;1.23;;;18.10;99.90;;;;;;5086749;27;20035;-69
2022/05/22 11:33:14;;;;;;;5.18;1.80;;;18.40;99.90;;;;;;5109743;27;20046;-68
2022/05/22 11:36:17;;;;;;;6.87;1.40;;;18.20;99.90;;;;;;5104729;27;20065;-65
2022/05/22 11:39:17;;;;;;;6.60;1.30;;;18.30;99.90;;;;;;5102279;28;20040;-65
2022/05/22 11:42:01;;;;;;;5.38;1.10;;;18.40;99.90;;;;;;5084459;27;20059;-69
2022/05/22 11:44:55;;;;;;;3.63;1.20;;;18.50;99.90;;;;;;5104938;28;20422;-67
2022/05/22 11:47:45;;;;;;;4.88;1.17;;;18.60;99.90;;;;;;5080337;28;20051;-66
2022/05/22 11:50:29;;;;;;;4.15;1.38;;;18.40;99.90;;;;;;5085007;27;20111;-67
2022/05/22 11:53:46;;;;;;;10.63;2.13;;;18.70;99.90;;;;;;5090607;27;20125;-69
2022/05/22 11:56:30;;;;;;;3.78;1.40;;;18.70;99.90;;;;;;5051040;27;20302;-68
2022/05/22 11:59:21;;;;;;;6.63;1.15;;;18.60;99.90;;;;;;5091778;28;20173;-66
2022/05/22 12:01:50;;;;;;;4.22;1.30;;;18.50;99.90;;;;;;5085049;27;20109;-68
2022/05/22 12:04:34;;;;;;;8.63;1.63;;;18.60;99.90;;;;;;5081629;28;20043;-65
2022/05/22 12:07:19;;;;;;;2.78;1.15;;;18.60;99.90;;;;;;5103147;27;20074;-66
2022/05/22 12:10:22;;;;;;;2.93;0.97;;;18.60;99.90;;;;;;5088396;28;20063;-68
2022/05/22 12:13:10;;;;;;;7.38;1.40;;;18.70;99.90;;;;;;5055187;28;20361;-66
2022/05/22 12:15:59;;;;;;;5.57;1.20;;;18.80;99.90;;;;;;5104253;27;20047;-66
2022/05/22 12:18:52;;;;;;;6.30;1.20;;;18.50;99.90;;;;;;5097309;27;20488;-65
2022/05/22 12:21:53;;;;;;;4.70;1.25;;;18.60;99.90;;;;;;5105653;27;20032;-67
2022/05/22 12:24:50;;;;;;;7.50;0.95;;;18.60;99.90;;;;;;5107932;28;20109;-66
2022/05/22 12:27:23;;;;;;;4.50;1.10;;;18.50;99.90;;;;;;5084988;28;20071;-66
2022/05/22 12:30:05;;;;;;;7.05;2.63;;;18.70;99.90;;;;;;5108093;28;20080;-66
2022/05/22 12:32:39;;;;;;;3.47;0.85;;;18.70;99.90;;;;;;5105137;27;20763;-66
2022/05/22 12:35:06;;;;;;;6.90;1.30;;;18.80;99.90;;;;;;5091037;28;20044;-65
2022/05/22 12:37:34;;;;;;;6.03;1.30;;;18.80;99.90;;;;;;5106890;27;20043;-65
2022/05/22 12:40:24;;;;;;;7.40;0.98;;;18.50;99.90;;;;;;5094442;27;20028;-66
2022/05/22 12:42:58;;;;;;;11.00;2.00;;;18.60;99.90;;;;;;5098214;27;20080;-66
2022/05/22 12:45:25;;;;;;;5.97;1.08;;;18.40;99.90;;;;;;5086303;28;20075;-66
2022/05/22 12:47:52;;;;;;;8.85;1.50;;;18.40;99.90;;;;;;5093366;27;20088;-66
2022/05/22 12:50:31;;;;;;;5.13;1.35;;;18.50;99.90;;;;;;5092801;27;20040;-65
2022/05/22 12:52:57;;;;;;;7.07;1.30;;;18.70;99.90;;;;;;5105669;27;20039;-65
2022/05/22 12:55:30;;;;;;;6.20;1.27;;;18.70;99.90;;;;;;5117709;27;20580;-68
2022/05/22 12:57:58;;;;;;;3.67;1.30;;;18.70;99.90;;;;;;5108355;28;20039;-70
2022/05/22 13:00:39;;;;;;;4.65;1.27;;;18.60;99.90;;;;;;5093648;27;20036;-66
2022/05/22 13:03:29;;;;;;;7.53;1.42;;;18.60;99.90;;;;;;5084994;28;20036;-66
2022/05/22 13:06:19;;;;;;;4.35;1.00;;;18.70;99.90;;;;;;5094254;27;20036;-67
2022/05/22 13:08:56;;;;;;;5.05;1.40;;;18.70;99.90;;;;;;5085830;28;20126;-66
2022/05/22 13:11:51;;;;;;;3.42;1.05;;;18.70;99.90;;;;;;5083734;28;20075;-65
2022/05/22 13:14:26;;;;;;;4.28;1.00;;;18.80;99.90;;;;;;5082957;27;20116;-67
2022/05/22 13:16:52;;;;;;;2.97;1.30;;;18.90;99.90;;;;;;5096467;28;20068;-65
2022/05/22 13:19:22;;;;;;;6.45;1.80;;;19.00;99.90;;;;;;5067690;28;20469;-66
2022/05/22 13:21:48;;;;;;;5.35;1.20;;;18.70;99.90;;;;;;5097230;28;20055;-66
2022/05/22 13:24:17;;;;;;;6.45;0.98;;;18.80;99.90;;;;;;5086785;28;20514;-65
2022/05/22 13:27:05;;;;;;;6.70;1.50;;;18.70;99.90;;;;;;5083922;28;20036;-65
2022/05/22 13:30:01;;;;;;;5.05;1.20;;;18.70;99.90;;;;;;5095757;27;20047;-65
2022/05/22 13:32:56;;;;;;;4.43;1.00;;;18.60;99.90;;;;;;5109866;27;20536;-65